VOS Triton — 9V8734 — position and weather

sailwx.info

Track history (hours):
 
Tides and Currents Weather Stations Pressure Air Temp Water Temp Dewpoint Dewpoint Depression Visibility Wind Speed Wind Dir Waves Ship Positions

VOS Triton

Last reported at 2017-Sep-21 07:28 UTC. Time now 2017-Sep-25 01:04 UTC.
Position N 31°16' E 030°09'.

Length 60 m; draft 4.4 m.

Type: Other ship. MMSI: 566136000.

Date/timePositionNaut miles runAvg speedWind from/ knotsBaromVisibWave heightAir tempDewpointWater temp
2017-Sep-21 07:28N 31°16' E 030°09'9 2.5
2017-Sep-21 03:40N 31°26' E 030°08'2 2.9
2017-Sep-21 03:04N 31°26' E 030°06'2 2.8
2017-Sep-21 02:32N 31°26' E 030°07'0 2.9
2017-Sep-21 02:30N 31°26' E 030°08'  
2017-Sep-17 18:15N 34°28' E 032°58'2 7.8
2017-Sep-17 18:01N 34°30' E 032°60'4 7.8
2017-Sep-17 17:30N 34°33' E 033°03'4 7.6
2017-Sep-17 16:57N 34°37' E 033°04'3 0.4
2017-Sep-17 09:36N 34°39' E 033°03'0 4.7
2017-Sep-17 09:31N 34°39' E 033°02'1 2.3
2017-Sep-17 09:00N 34°39' E 033°01'0 0.0
2017-Sep-17 08:30N 34°39' E 033°01'0 0.0
2017-Sep-17 08:00N 34°39' E 033°01'0 0.0
2017-Sep-17 07:30N 34°39' E 033°01'0 0.0
2017-Sep-17 07:00N 34°39' E 033°01'0 0.0
2017-Sep-17 06:24N 34°39' E 033°01'0 0.0
2017-Sep-17 05:54N 34°39' E 033°01'0 0.0
2017-Sep-17 05:27N 34°39' E 033°01'0 0.0
2017-Sep-17 04:39N 34°39' E 033°01'0 0.0
2017-Sep-17 04:27N 34°39' E 033°01'0 0.0
2017-Sep-17 03:45N 34°39' E 033°01'0 0.0
2017-Sep-17 03:30N 34°39' E 033°01'0 0.0
2017-Sep-17 03:00N 34°39' E 033°01'0 0.0
2017-Sep-17 02:30N 34°39' E 033°01'0 0.0
2017-Sep-17 02:00N 34°39' E 033°01'0 0.0
2017-Sep-17 01:27N 34°39' E 033°01'0 0.0
2017-Sep-17 00:45N 34°39' E 033°01'0 0.0
2017-Sep-17 00:30N 34°39' E 033°01'0 0.0
2017-Sep-17 00:00N 34°39' E 033°01'0 0.0
2017-Sep-16 23:18N 34°39' E 033°01'0 0.0
2017-Sep-16 23:00N 34°39' E 033°01'0 0.0
2017-Sep-16 22:30N 34°39' E 033°01'0 0.0
2017-Sep-16 22:00N 34°39' E 033°01'0 0.0
2017-Sep-16 21:27N 34°39' E 033°01'0 0.0
2017-Sep-16 21:00N 34°39' E 033°01'0 0.0
2017-Sep-16 20:30N 34°39' E 033°01'0 0.0
2017-Sep-16 20:00N 34°39' E 033°01'0 0.0
2017-Sep-16 19:30N 34°39' E 033°01'0 0.0
2017-Sep-16 19:00N 34°39' E 033°01'0 0.0
2017-Sep-16 18:30N 34°39' E 033°01'0 0.0
2017-Sep-16 18:00N 34°39' E 033°01'0 0.0
2017-Sep-16 17:27N 34°39' E 033°01'0 0.0
2017-Sep-16 17:00N 34°39' E 033°01'0 0.0
2017-Sep-16 16:30N 34°39' E 033°01'0 0.0
2017-Sep-16 16:00N 34°39' E 033°01'0 0.0
2017-Sep-16 15:24N 34°39' E 033°01'0 0.0
2017-Sep-16 15:00N 34°39' E 033°01'0 0.0
2017-Sep-16 14:27N 34°39' E 033°01'0 0.0
2017-Sep-16 14:00N 34°39' E 033°01'0 0.0
2017-Sep-16 13:27N 34°39' E 033°01'0 0.0
2017-Sep-16 13:00N 34°39' E 033°01'0 0.0
2017-Sep-16 12:28N 34°39' E 033°01'0 0.0
2017-Sep-16 12:00N 34°39' E 033°01'0 0.0
2017-Sep-16 11:28N 34°39' E 033°01'0 0.0
2017-Sep-16 11:00N 34°39' E 033°01'0 0.0
2017-Sep-16 10:30N 34°39' E 033°01'0 0.0
2017-Sep-16 09:57N 34°39' E 033°01'0 0.0
2017-Sep-16 09:24N 34°39' E 033°01'0 0.0
2017-Sep-16 09:00N 34°39' E 033°01'0 0.0
2017-Sep-16 06:28N 34°39' E 033°01'0 0.0
2017-Sep-16 05:57N 34°39' E 033°01'0 0.0
2017-Sep-16 05:30N 34°39' E 033°01'0 0.0
2017-Sep-16 05:00N 34°39' E 033°01'0 0.0
2017-Sep-16 04:28N 34°39' E 033°01'0 0.0
2017-Sep-16 03:36N 34°39' E 033°01'0 0.0
2017-Sep-16 03:30N 34°39' E 033°01'0 0.0
2017-Sep-16 02:58N 34°39' E 033°01'0 0.0
2017-Sep-16 02:28N 34°39' E 033°01'0 0.0
2017-Sep-16 01:57N 34°39' E 033°01'0 0.0
2017-Sep-16 01:28N 34°39' E 033°01'0 0.0
2017-Sep-16 00:39N 34°39' E 033°01'0 0.0
2017-Sep-16 00:21N 34°39' E 033°01'0 0.0
2017-Sep-16 00:00N 34°39' E 033°01'0 0.0
2017-Sep-15 23:24N 34°39' E 033°01'0 0.0
2017-Sep-15 22:57N 34°39' E 033°01'0 0.0
2017-Sep-15 22:24N 34°39' E 033°01'0 0.0
2017-Sep-15 22:00N 34°39' E 033°01'0 0.0
2017-Sep-15 21:27N 34°39' E 033°01'0 0.0
2017-Sep-15 20:57N 34°39' E 033°01'0 0.0
2017-Sep-15 20:30N 34°39' E 033°01'0 0.0
2017-Sep-15 19:57N 34°39' E 033°01'0 0.0
2017-Sep-15 19:27N 34°39' E 033°01'0 0.0
2017-Sep-15 19:00N 34°39' E 033°01'0 0.0
2017-Sep-15 18:30N 34°39' E 033°01'0 0.0
2017-Sep-15 18:00N 34°39' E 033°01'0 0.0
2017-Sep-15 17:30N 34°39' E 033°01'0 0.0
2017-Sep-15 17:00N 34°39' E 033°01'0 0.0
2017-Sep-15 16:30N 34°39' E 033°01'0 0.0
2017-Sep-15 16:00N 34°39' E 033°01'0 0.0
2017-Sep-15 15:30N 34°39' E 033°01'0 0.0
2017-Sep-15 15:00N 34°39' E 033°01'0 0.0
2017-Sep-15 14:30N 34°39' E 033°01'0 0.0
2017-Sep-15 14:00N 34°39' E 033°01'0 0.0
2017-Sep-15 13:27N 34°39' E 033°01'0 0.0
2017-Sep-15 13:00N 34°39' E 033°01'0 0.0
2017-Sep-15 12:30N 34°39' E 033°01'0 0.0
2017-Sep-15 12:00N 34°39' E 033°01'0 0.0
2017-Sep-15 11:30N 34°39' E 033°01'0 0.0
2017-Sep-15 11:00N 34°39' E 033°01'0 0.0
2017-Sep-15 10:30N 34°39' E 033°01'0 0.0
2017-Sep-15 10:00N 34°39' E 033°01'0 0.0
2017-Sep-15 09:30N 34°39' E 033°01'0 0.0
2017-Sep-15 09:00N 34°39' E 033°01'0 0.0
2017-Sep-15 08:30N 34°39' E 033°01'0 0.0
2017-Sep-15 08:00N 34°39' E 033°01'0 0.0
2017-Sep-15 07:24N 34°39' E 033°01'0 0.0
2017-Sep-15 06:57N 34°39' E 033°01'0 0.0
2017-Sep-15 06:30N 34°39' E 033°01'0 0.0
2017-Sep-15 06:00N 34°39' E 033°01'0 0.0
2017-Sep-15 04:54N 34°39' E 033°01'0 0.0
2017-Sep-15 04:30N 34°39' E 033°01'0 0.0
2017-Sep-15 03:45N 34°39' E 033°01'0 0.0
2017-Sep-15 03:27N 34°39' E 033°01'0 0.0
2017-Sep-15 03:00N 34°39' E 033°01'0 0.0
2017-Sep-15 02:21N 34°39' E 033°01'0 0.0
2017-Sep-15 01:51N 34°39' E 033°01'0 0.0
2017-Sep-15 01:30N 34°39' E 033°01'0 0.0
2017-Sep-15 00:57N 34°39' E 033°01'0 0.0
2017-Sep-15 00:30N 34°39' E 033°01'0 0.0
2017-Sep-15 00:00N 34°39' E 033°01'0 0.0
2017-Sep-14 23:30N 34°39' E 033°01'0 0.0
2017-Sep-14 23:00N 34°39' E 033°01'0 0.0
2017-Sep-14 22:30N 34°39' E 033°01'0 0.0
2017-Sep-14 22:00N 34°39' E 033°01'0 0.0
2017-Sep-14 21:18N 34°39' E 033°01'0 0.0
2017-Sep-14 21:00N 34°39' E 033°01'0 0.0
2017-Sep-14 20:30N 34°39' E 033°01'0 0.0
2017-Sep-14 19:51N 34°39' E 033°01'0 0.0
2017-Sep-14 19:30N 34°39' E 033°01'0 0.0
2017-Sep-14 19:00N 34°39' E 033°01'0 0.0
2017-Sep-14 18:30N 34°39' E 033°01'0 0.0
2017-Sep-14 18:00N 34°39' E 033°01'0 0.0
2017-Sep-14 17:24N 34°39' E 033°01'0 0.0
2017-Sep-14 17:00N 34°39' E 033°01'0 0.0
2017-Sep-14 16:30N 34°39' E 033°01'0 0.0
2017-Sep-14 16:00N 34°39' E 033°01'0 0.0
2017-Sep-14 15:30N 34°39' E 033°01'0 0.0
2017-Sep-14 15:00N 34°39' E 033°01'0 0.0
2017-Sep-14 14:30N 34°39' E 033°01'0 0.0
2017-Sep-14 13:57N 34°39' E 033°01'0 0.0
2017-Sep-14 13:30N 34°39' E 033°01'0 0.0
2017-Sep-14 13:00N 34°39' E 033°01'0 0.0
2017-Sep-14 12:30N 34°39' E 033°01'0 0.0
2017-Sep-14 12:00N 34°39' E 033°01'0 0.0
2017-Sep-14 11:30N 34°39' E 033°01'0 0.0
2017-Sep-14 11:00N 34°39' E 033°01'0 0.0
2017-Sep-14 10:30N 34°39' E 033°01'0 0.0
2017-Sep-14 10:00N 34°39' E 033°01'0 0.0
2017-Sep-14 09:30N 34°39' E 033°01'0 0.0
2017-Sep-14 09:00N 34°39' E 033°01'0 0.0
2017-Sep-14 08:30N 34°39' E 033°01'0 0.0
2017-Sep-14 08:00N 34°39' E 033°01'0 0.0
2017-Sep-14 07:30N 34°39' E 033°01'0 0.0
2017-Sep-14 06:54N 34°39' E 033°01'0 0.0
2017-Sep-14 06:27N 34°39' E 033°01'0 0.0
2017-Sep-14 06:00N 34°39' E 033°01'0 0.0
2017-Sep-14 05:30N 34°39' E 033°01'0 0.0
2017-Sep-14 05:00N 34°39' E 033°01'0 0.0
2017-Sep-14 04:30N 34°39' E 033°01'0 0.0
2017-Sep-14 04:00N 34°39' E 033°01'0 0.0
2017-Sep-14 03:21N 34°39' E 033°01'0 0.0
2017-Sep-14 03:00N 34°39' E 033°01'0 0.0
2017-Sep-14 02:30N 34°39' E 033°01'0 0.0
2017-Sep-14 02:00N 34°39' E 033°01'0 0.0
2017-Sep-14 01:27N 34°39' E 033°01'0 0.0
2017-Sep-14 01:00N 34°39' E 033°01'0 0.0
2017-Sep-14 00:30N 34°39' E 033°01'0 0.0
2017-Sep-14 00:00N 34°39' E 033°01'0 0.0
2017-Sep-13 23:30N 34°39' E 033°01'0 0.0
2017-Sep-13 23:00N 34°39' E 033°01'0 0.0
2017-Sep-13 22:30N 34°39' E 033°01'0 0.0
2017-Sep-13 21:57N 34°39' E 033°01'0 0.0
2017-Sep-13 21:30N 34°39' E 033°01'0 0.0
2017-Sep-13 21:00N 34°39' E 033°01'0 0.0
2017-Sep-13 20:24N 34°39' E 033°01'0 0.0
2017-Sep-13 20:00N 34°39' E 033°01'0 0.0
2017-Sep-13 19:30N 34°39' E 033°01'0 0.0
2017-Sep-13 19:00N 34°39' E 033°01'0 0.0
2017-Sep-13 18:30N 34°39' E 033°01'0 0.0
2017-Sep-13 18:00N 34°39' E 033°01'0 0.0
2017-Sep-13 17:30N 34°39' E 033°01'0 0.0
2017-Sep-13 17:00N 34°39' E 033°01'0 0.0
2017-Sep-13 16:30N 34°39' E 033°01'0 0.0
2017-Sep-13 15:57N 34°39' E 033°01'0 0.0
2017-Sep-13 15:27N 34°39' E 033°01'0 0.0
2017-Sep-13 14:36N 34°39' E 033°01'0 0.0
2017-Sep-13 14:30N 34°39' E 033°01'0 0.0
2017-Sep-13 13:48N 34°39' E 033°01'0 0.0
2017-Sep-13 13:24N 34°39' E 033°01'0 0.0
2017-Sep-13 13:00N 34°39' E 033°01'0 0.0
2017-Sep-13 12:18N 34°39' E 033°01'0 0.0
2017-Sep-13 11:54N 34°39' E 033°01'0 0.0
2017-Sep-13 11:24N 34°39' E 033°01'0 0.0
2017-Sep-13 10:49N 34°39' E 033°01'0 0.0
2017-Sep-13 08:48N 34°39' E 033°01'0 0.0
2017-Sep-13 05:36N 34°39' E 033°01'0 0.0
2017-Sep-13 05:27N 34°39' E 033°01'0 0.0
2017-Sep-13 03:24N 34°39' E 033°01'0 0.0
2017-Sep-13 01:30N 34°39' E 033°01'0 0.0
2017-Sep-13 00:57N 34°39' E 033°01'0 0.0
2017-Sep-13 00:27N 34°39' E 033°01'0 0.0
2017-Sep-13 00:00N 34°39' E 033°01'0 0.0
2017-Sep-12 23:30N 34°39' E 033°01'0 0.0
2017-Sep-12 22:55N 34°39' E 033°01'0 0.0
2017-Sep-12 22:30N 34°39' E 033°01'0 0.0
2017-Sep-12 22:00N 34°39' E 033°01'0 0.0
2017-Sep-12 21:09N 34°39' E 033°01'0 0.0
2017-Sep-12 20:09N 34°39' E 033°01'0 0.0
2017-Sep-12 19:57N 34°39' E 033°01'0 0.0
2017-Sep-12 19:30N 34°39' E 033°01'0 0.0
2017-Sep-12 19:00N 34°39' E 033°01'0 0.0
2017-Sep-12 18:30N 34°39' E 033°01'0 0.0
2017-Sep-12 18:00N 34°39' E 033°01'0 0.0
2017-Sep-12 17:30N 34°39' E 033°01'0 0.0
2017-Sep-12 17:00N 34°39' E 033°01'0 0.0
2017-Sep-12 16:09N 34°39' E 033°01'0 0.0
2017-Sep-12 15:57N 34°39' E 033°01'0 0.0
2017-Sep-12 15:30N 34°39' E 033°01'0 0.0
2017-Sep-12 15:00N 34°39' E 033°01'0 0.0
2017-Sep-12 14:30N 34°39' E 033°01'0 0.0
2017-Sep-12 14:00N 34°39' E 033°01'0 0.0
2017-Sep-12 13:30N 34°39' E 033°01'0 0.0
2017-Sep-12 13:00N 34°39' E 033°01'0 0.0
2017-Sep-12 12:21N 34°39' E 033°01'0 0.0
2017-Sep-12 12:00N 34°39' E 033°01'0 0.0
2017-Sep-12 11:30N 34°39' E 033°01'0 0.0
2017-Sep-12 11:00N 34°39' E 033°01'0 0.0
2017-Sep-12 10:31N 34°39' E 033°01'0 0.0
2017-Sep-12 09:59N 34°39' E 033°01'0 0.0
2017-Sep-12 09:30N 34°39' E 033°01'0 0.0
2017-Sep-12 09:00N 34°39' E 033°01'0 0.0
2017-Sep-12 08:30N 34°39' E 033°01'0 0.0
2017-Sep-12 08:00N 34°39' E 033°01'0 0.0
2017-Sep-12 07:30N 34°39' E 033°01'0 0.0
2017-Sep-12 07:00N 34°39' E 033°01'0 0.0
2017-Sep-12 06:30N 34°39' E 033°01'0 0.0
2017-Sep-12 06:00N 34°39' E 033°01'0 0.0
2017-Sep-12 05:30N 34°39' E 033°01'0 0.0
2017-Sep-12 05:00N 34°39' E 033°01'0 0.0
2017-Sep-12 04:30N 34°39' E 033°01'0 0.0
2017-Sep-12 04:00N 34°39' E 033°01'0 0.0
2017-Sep-12 03:30N 34°39' E 033°01'0 0.0
2017-Sep-12 03:00N 34°39' E 033°01'0 0.0
2017-Sep-12 02:30N 34°39' E 033°01'0 0.0
2017-Sep-12 02:00N 34°39' E 033°01'0 0.0
2017-Sep-12 01:30N 34°39' E 033°01'0 0.0
2017-Sep-12 01:00N 34°39' E 033°01'0 0.0
2017-Sep-12 00:30N 34°39' E 033°01'0 0.0
2017-Sep-12 00:00N 34°39' E 033°01'0 0.0
2017-Sep-11 23:30N 34°39' E 033°01'0 0.0
2017-Sep-11 23:00N 34°39' E 033°01'0 0.0
2017-Sep-11 22:30N 34°39' E 033°01'0 0.0
2017-Sep-11 22:00N 34°39' E 033°01'0 0.0
2017-Sep-11 21:30N 34°39' E 033°01'0 0.0
2017-Sep-11 21:00N 34°39' E 033°01'0 0.0
2017-Sep-11 20:30N 34°39' E 033°01'0 0.0
2017-Sep-11 20:00N 34°39' E 033°01'0 0.0
2017-Sep-11 19:30N 34°39' E 033°01'0 0.0
2017-Sep-11 19:00N 34°39' E 033°01'0 0.0
2017-Sep-11 18:30N 34°39' E 033°01'0 0.0
2017-Sep-11 18:00N 34°39' E 033°01'0 0.0
2017-Sep-11 17:30N 34°39' E 033°01'0 0.0
2017-Sep-11 16:54N 34°39' E 033°01'0 0.0
2017-Sep-11 16:30N 34°39' E 033°01'0 0.0
2017-Sep-11 16:00N 34°39' E 033°01'0 0.0
2017-Sep-11 15:30N 34°39' E 033°01'0 0.0
2017-Sep-11 15:00N 34°39' E 033°01'0 0.0
2017-Sep-11 14:30N 34°39' E 033°01'0 0.0
2017-Sep-11 14:00N 34°39' E 033°01'0 0.0
2017-Sep-11 13:30N 34°39' E 033°01'0 0.0
2017-Sep-11 13:00N 34°39' E 033°01'0 0.0
2017-Sep-11 12:27N 34°39' E 033°01'0 0.0
2017-Sep-11 12:00N 34°39' E 033°01'0 0.0
2017-Sep-11 11:30N 34°39' E 033°01'0 0.0
2017-Sep-11 11:00N 34°39' E 033°01'0 0.0
2017-Sep-11 10:30N 34°39' E 033°01'0 0.0
2017-Sep-11 09:54N 34°39' E 033°01'0 0.0
2017-Sep-11 09:30N 34°39' E 033°01'0 0.0
2017-Sep-11 09:00N 34°39' E 033°01'0 0.0
2017-Sep-11 08:30N 34°39' E 033°01'0 0.0
2017-Sep-11 07:39N 34°39' E 033°01'  
Track history (hours):
 
Tides and Currents Weather Stations Pressure Air Temp Water Temp Dewpoint Dewpoint Depression Visibility Wind Speed Wind Dir Waves Ship Positions

VOS Triton

Last reported at 2017-Sep-21 07:28 UTC. Time now 2017-Sep-25 01:04 UTC.
Position N 31°16' E 030°09'.

Length 60 m; draft 4.4 m.

Type: Other ship. MMSI: 566136000.

Date/timePositionNaut miles runAvg speedWind from/ knotsBaromVisibWave heightAir tempDewpointWater temp
2017-Sep-21 07:28N 31°16' E 030°09'9 2.5
2017-Sep-21 03:40N 31°26' E 030°08'2 2.9
2017-Sep-21 03:04N 31°26' E 030°06'2 2.8
2017-Sep-21 02:32N 31°26' E 030°07'0 2.9
2017-Sep-21 02:30N 31°26' E 030°08'  
2017-Sep-17 18:15N 34°28' E 032°58'2 7.8
2017-Sep-17 18:01N 34°30' E 032°60'4 7.8
2017-Sep-17 17:30N 34°33' E 033°03'4 7.6
2017-Sep-17 16:57N 34°37' E 033°04'3 0.4
2017-Sep-17 09:36N 34°39' E 033°03'0 4.7
2017-Sep-17 09:31N 34°39' E 033°02'1 2.3
2017-Sep-17 09:00N 34°39' E 033°01'0 0.0
2017-Sep-17 08:30N 34°39' E 033°01'0 0.0
2017-Sep-17 08:00N 34°39' E 033°01'0 0.0
2017-Sep-17 07:30N 34°39' E 033°01'0 0.0
2017-Sep-17 07:00N 34°39' E 033°01'0 0.0
2017-Sep-17 06:24N 34°39' E 033°01'0 0.0
2017-Sep-17 05:54N 34°39' E 033°01'0 0.0
2017-Sep-17 05:27N 34°39' E 033°01'0 0.0
2017-Sep-17 04:39N 34°39' E 033°01'0 0.0
2017-Sep-17 04:27N 34°39' E 033°01'0 0.0
2017-Sep-17 03:45N 34°39' E 033°01'0 0.0
2017-Sep-17 03:30N 34°39' E 033°01'0 0.0
2017-Sep-17 03:00N 34°39' E 033°01'0 0.0
2017-Sep-17 02:30N 34°39' E 033°01'0 0.0
2017-Sep-17 02:00N 34°39' E 033°01'0 0.0
2017-Sep-17 01:27N 34°39' E 033°01'0 0.0
2017-Sep-17 00:45N 34°39' E 033°01'0 0.0
2017-Sep-17 00:30N 34°39' E 033°01'0 0.0
2017-Sep-17 00:00N 34°39' E 033°01'0 0.0
2017-Sep-16 23:18N 34°39' E 033°01'0 0.0
2017-Sep-16 23:00N 34°39' E 033°01'0 0.0
2017-Sep-16 22:30N 34°39' E 033°01'0 0.0
2017-Sep-16 22:00N 34°39' E 033°01'0 0.0
2017-Sep-16 21:27N 34°39' E 033°01'0 0.0
2017-Sep-16 21:00N 34°39' E 033°01'0 0.0
2017-Sep-16 20:30N 34°39' E 033°01'0 0.0
2017-Sep-16 20:00N 34°39' E 033°01'0 0.0
2017-Sep-16 19:30N 34°39' E 033°01'0 0.0
2017-Sep-16 19:00N 34°39' E 033°01'0 0.0
2017-Sep-16 18:30N 34°39' E 033°01'0 0.0
2017-Sep-16 18:00N 34°39' E 033°01'0 0.0
2017-Sep-16 17:27N 34°39' E 033°01'0 0.0
2017-Sep-16 17:00N 34°39' E 033°01'0 0.0
2017-Sep-16 16:30N 34°39' E 033°01'0 0.0
2017-Sep-16 16:00N 34°39' E 033°01'0 0.0
2017-Sep-16 15:24N 34°39' E 033°01'0 0.0
2017-Sep-16 15:00N 34°39' E 033°01'0 0.0
2017-Sep-16 14:27N 34°39' E 033°01'0 0.0
2017-Sep-16 14:00N 34°39' E 033°01'0 0.0
2017-Sep-16 13:27N 34°39' E 033°01'0 0.0
2017-Sep-16 13:00N 34°39' E 033°01'0 0.0
2017-Sep-16 12:28N 34°39' E 033°01'0 0.0
2017-Sep-16 12:00N 34°39' E 033°01'0 0.0
2017-Sep-16 11:28N 34°39' E 033°01'0 0.0
2017-Sep-16 11:00N 34°39' E 033°01'0 0.0
2017-Sep-16 10:30N 34°39' E 033°01'0 0.0
2017-Sep-16 09:57N 34°39' E 033°01'0 0.0
2017-Sep-16 09:24N 34°39' E 033°01'0 0.0
2017-Sep-16 09:00N 34°39' E 033°01'0 0.0
2017-Sep-16 06:28N 34°39' E 033°01'0 0.0
2017-Sep-16 05:57N 34°39' E 033°01'0 0.0
2017-Sep-16 05:30N 34°39' E 033°01'0 0.0
2017-Sep-16 05:00N 34°39' E 033°01'0 0.0
2017-Sep-16 04:28N 34°39' E 033°01'0 0.0
2017-Sep-16 03:36N 34°39' E 033°01'0 0.0
2017-Sep-16 03:30N 34°39' E 033°01'0 0.0
2017-Sep-16 02:58N 34°39' E 033°01'0 0.0
2017-Sep-16 02:28N 34°39' E 033°01'0 0.0
2017-Sep-16 01:57N 34°39' E 033°01'0 0.0
2017-Sep-16 01:28N 34°39' E 033°01'0 0.0
2017-Sep-16 00:39N 34°39' E 033°01'0 0.0
2017-Sep-16 00:21N 34°39' E 033°01'0 0.0
2017-Sep-16 00:00N 34°39' E 033°01'0 0.0
2017-Sep-15 23:24N 34°39' E 033°01'0 0.0
2017-Sep-15 22:57N 34°39' E 033°01'0 0.0
2017-Sep-15 22:24N 34°39' E 033°01'0 0.0
2017-Sep-15 22:00N 34°39' E 033°01'0 0.0
2017-Sep-15 21:27N 34°39' E 033°01'0 0.0
2017-Sep-15 20:57N 34°39' E 033°01'0 0.0
2017-Sep-15 20:30N 34°39' E 033°01'0 0.0
2017-Sep-15 19:57N 34°39' E 033°01'0 0.0
2017-Sep-15 19:27N 34°39' E 033°01'0 0.0
2017-Sep-15 19:00N 34°39' E 033°01'0 0.0
2017-Sep-15 18:30N 34°39' E 033°01'0 0.0
2017-Sep-15 18:00N 34°39' E 033°01'0 0.0
2017-Sep-15 17:30N 34°39' E 033°01'0 0.0
2017-Sep-15 17:00N 34°39' E 033°01'0 0.0
2017-Sep-15 16:30N 34°39' E 033°01'0 0.0
2017-Sep-15 16:00N 34°39' E 033°01'0 0.0
2017-Sep-15 15:30N 34°39' E 033°01'0 0.0
2017-Sep-15 15:00N 34°39' E 033°01'0 0.0
2017-Sep-15 14:30N 34°39' E 033°01'0 0.0
2017-Sep-15 14:00N 34°39' E 033°01'0 0.0
2017-Sep-15 13:27N 34°39' E 033°01'0 0.0
2017-Sep-15 13:00N 34°39' E 033°01'0 0.0
2017-Sep-15 12:30N 34°39' E 033°01'0 0.0
2017-Sep-15 12:00N 34°39' E 033°01'0 0.0
2017-Sep-15 11:30N 34°39' E 033°01'0 0.0
2017-Sep-15 11:00N 34°39' E 033°01'0 0.0
2017-Sep-15 10:30N 34°39' E 033°01'0 0.0
2017-Sep-15 10:00N 34°39' E 033°01'0 0.0
2017-Sep-15 09:30N 34°39' E 033°01'0 0.0
2017-Sep-15 09:00N 34°39' E 033°01'0 0.0
2017-Sep-15 08:30N 34°39' E 033°01'0 0.0
2017-Sep-15 08:00N 34°39' E 033°01'0 0.0
2017-Sep-15 07:24N 34°39' E 033°01'0 0.0
2017-Sep-15 06:57N 34°39' E 033°01'0 0.0
2017-Sep-15 06:30N 34°39' E 033°01'0 0.0
2017-Sep-15 06:00N 34°39' E 033°01'0 0.0
2017-Sep-15 04:54N 34°39' E 033°01'0 0.0
2017-Sep-15 04:30N 34°39' E 033°01'0 0.0
2017-Sep-15 03:45N 34°39' E 033°01'0 0.0
2017-Sep-15 03:27N 34°39' E 033°01'0 0.0
2017-Sep-15 03:00N 34°39' E 033°01'0 0.0
2017-Sep-15 02:21N 34°39' E 033°01'0 0.0
2017-Sep-15 01:51N 34°39' E 033°01'0 0.0
2017-Sep-15 01:30N 34°39' E 033°01'0 0.0
2017-Sep-15 00:57N 34°39' E 033°01'0 0.0
2017-Sep-15 00:30N 34°39' E 033°01'0 0.0
2017-Sep-15 00:00N 34°39' E 033°01'0 0.0
2017-Sep-14 23:30N 34°39' E 033°01'0 0.0
2017-Sep-14 23:00N 34°39' E 033°01'0 0.0
2017-Sep-14 22:30N 34°39' E 033°01'0 0.0
2017-Sep-14 22:00N 34°39' E 033°01'0 0.0
2017-Sep-14 21:18N 34°39' E 033°01'0 0.0
2017-Sep-14 21:00N 34°39' E 033°01'0 0.0
2017-Sep-14 20:30N 34°39' E 033°01'0 0.0
2017-Sep-14 19:51N 34°39' E 033°01'0 0.0
2017-Sep-14 19:30N 34°39' E 033°01'0 0.0
2017-Sep-14 19:00N 34°39' E 033°01'0 0.0
2017-Sep-14 18:30N 34°39' E 033°01'0 0.0
2017-Sep-14 18:00N 34°39' E 033°01'0 0.0
2017-Sep-14 17:24N 34°39' E 033°01'0 0.0
2017-Sep-14 17:00N 34°39' E 033°01'0 0.0
2017-Sep-14 16:30N 34°39' E 033°01'0 0.0
2017-Sep-14 16:00N 34°39' E 033°01'0 0.0
2017-Sep-14 15:30N 34°39' E 033°01'0 0.0
2017-Sep-14 15:00N 34°39' E 033°01'0 0.0
2017-Sep-14 14:30N 34°39' E 033°01'0 0.0
2017-Sep-14 13:57N 34°39' E 033°01'0 0.0
2017-Sep-14 13:30N 34°39' E 033°01'0 0.0
2017-Sep-14 13:00N 34°39' E 033°01'0 0.0
2017-Sep-14 12:30N 34°39' E 033°01'0 0.0
2017-Sep-14 12:00N 34°39' E 033°01'0 0.0
2017-Sep-14 11:30N 34°39' E 033°01'0 0.0
2017-Sep-14 11:00N 34°39' E 033°01'0 0.0
2017-Sep-14 10:30N 34°39' E 033°01'0 0.0
2017-Sep-14 10:00N 34°39' E 033°01'0 0.0
2017-Sep-14 09:30N 34°39' E 033°01'0 0.0
2017-Sep-14 09:00N 34°39' E 033°01'0 0.0
2017-Sep-14 08:30N 34°39' E 033°01'0 0.0
2017-Sep-14 08:00N 34°39' E 033°01'0 0.0
2017-Sep-14 07:30N 34°39' E 033°01'0 0.0
2017-Sep-14 06:54N 34°39' E 033°01'0 0.0
2017-Sep-14 06:27N 34°39' E 033°01'0 0.0
2017-Sep-14 06:00N 34°39' E 033°01'0 0.0
2017-Sep-14 05:30N 34°39' E 033°01'0 0.0
2017-Sep-14 05:00N 34°39' E 033°01'0 0.0
2017-Sep-14 04:30N 34°39' E 033°01'0 0.0
2017-Sep-14 04:00N 34°39' E 033°01'0 0.0
2017-Sep-14 03:21N 34°39' E 033°01'0 0.0
2017-Sep-14 03:00N 34°39' E 033°01'0 0.0
2017-Sep-14 02:30N 34°39' E 033°01'0 0.0
2017-Sep-14 02:00N 34°39' E 033°01'0 0.0
2017-Sep-14 01:27N 34°39' E 033°01'0 0.0
2017-Sep-14 01:00N 34°39' E 033°01'0 0.0
2017-Sep-14 00:30N 34°39' E 033°01'0 0.0
2017-Sep-14 00:00N 34°39' E 033°01'0 0.0
2017-Sep-13 23:30N 34°39' E 033°01'0 0.0
2017-Sep-13 23:00N 34°39' E 033°01'0 0.0
2017-Sep-13 22:30N 34°39' E 033°01'0 0.0
2017-Sep-13 21:57N 34°39' E 033°01'0 0.0
2017-Sep-13 21:30N 34°39' E 033°01'0 0.0
2017-Sep-13 21:00N 34°39' E 033°01'0 0.0
2017-Sep-13 20:24N 34°39' E 033°01'0 0.0
2017-Sep-13 20:00N 34°39' E 033°01'0 0.0
2017-Sep-13 19:30N 34°39' E 033°01'0 0.0
2017-Sep-13 19:00N 34°39' E 033°01'0 0.0
2017-Sep-13 18:30N 34°39' E 033°01'0 0.0
2017-Sep-13 18:00N 34°39' E 033°01'0 0.0
2017-Sep-13 17:30N 34°39' E 033°01'0 0.0
2017-Sep-13 17:00N 34°39' E 033°01'0 0.0
2017-Sep-13 16:30N 34°39' E 033°01'0 0.0
2017-Sep-13 15:57N 34°39' E 033°01'0 0.0
2017-Sep-13 15:27N 34°39' E 033°01'0 0.0
2017-Sep-13 14:36N 34°39' E 033°01'0 0.0
2017-Sep-13 14:30N 34°39' E 033°01'0 0.0
2017-Sep-13 13:48N 34°39' E 033°01'0 0.0
2017-Sep-13 13:24N 34°39' E 033°01'0 0.0
2017-Sep-13 13:00N 34°39' E 033°01'0 0.0
2017-Sep-13 12:18N 34°39' E 033°01'0 0.0
2017-Sep-13 11:54N 34°39' E 033°01'0 0.0
2017-Sep-13 11:24N 34°39' E 033°01'0 0.0
2017-Sep-13 10:49N 34°39' E 033°01'0 0.0
2017-Sep-13 08:48N 34°39' E 033°01'0 0.0
2017-Sep-13 05:36N 34°39' E 033°01'0 0.0
2017-Sep-13 05:27N 34°39' E 033°01'0 0.0
2017-Sep-13 03:24N 34°39' E 033°01'0 0.0
2017-Sep-13 01:30N 34°39' E 033°01'0 0.0
2017-Sep-13 00:57N 34°39' E 033°01'0 0.0
2017-Sep-13 00:27N 34°39' E 033°01'0 0.0
2017-Sep-13 00:00N 34°39' E 033°01'0 0.0
2017-Sep-12 23:30N 34°39' E 033°01'0 0.0
2017-Sep-12 22:55N 34°39' E 033°01'0 0.0
2017-Sep-12 22:30N 34°39' E 033°01'0 0.0
2017-Sep-12 22:00N 34°39' E 033°01'0 0.0
2017-Sep-12 21:09N 34°39' E 033°01'0 0.0
2017-Sep-12 20:09N 34°39' E 033°01'0 0.0
2017-Sep-12 19:57N 34°39' E 033°01'0 0.0
2017-Sep-12 19:30N 34°39' E 033°01'0 0.0
2017-Sep-12 19:00N 34°39' E 033°01'0 0.0
2017-Sep-12 18:30N 34°39' E 033°01'0 0.0
2017-Sep-12 18:00N 34°39' E 033°01'0 0.0
2017-Sep-12 17:30N 34°39' E 033°01'0 0.0
2017-Sep-12 17:00N 34°39' E 033°01'0 0.0
2017-Sep-12 16:09N 34°39' E 033°01'0 0.0
2017-Sep-12 15:57N 34°39' E 033°01'0 0.0
2017-Sep-12 15:30N 34°39' E 033°01'0 0.0
2017-Sep-12 15:00N 34°39' E 033°01'0 0.0
2017-Sep-12 14:30N 34°39' E 033°01'0 0.0
2017-Sep-12 14:00N 34°39' E 033°01'0 0.0
2017-Sep-12 13:30N 34°39' E 033°01'0 0.0
2017-Sep-12 13:00N 34°39' E 033°01'0 0.0
2017-Sep-12 12:21N 34°39' E 033°01'0 0.0
2017-Sep-12 12:00N 34°39' E 033°01'0 0.0
2017-Sep-12 11:30N 34°39' E 033°01'0 0.0
2017-Sep-12 11:00N 34°39' E 033°01'0 0.0
2017-Sep-12 10:31N 34°39' E 033°01'0 0.0
2017-Sep-12 09:59N 34°39' E 033°01'0 0.0
2017-Sep-12 09:30N 34°39' E 033°01'0 0.0
2017-Sep-12 09:00N 34°39' E 033°01'0 0.0
2017-Sep-12 08:30N 34°39' E 033°01'0 0.0
2017-Sep-12 08:00N 34°39' E 033°01'0 0.0
2017-Sep-12 07:30N 34°39' E 033°01'0 0.0
2017-Sep-12 07:00N 34°39' E 033°01'0 0.0
2017-Sep-12 06:30N 34°39' E 033°01'0 0.0
2017-Sep-12 06:00N 34°39' E 033°01'0 0.0
2017-Sep-12 05:30N 34°39' E 033°01'0 0.0
2017-Sep-12 05:00N 34°39' E 033°01'0 0.0
2017-Sep-12 04:30N 34°39' E 033°01'0 0.0
2017-Sep-12 04:00N 34°39' E 033°01'0 0.0
2017-Sep-12 03:30N 34°39' E 033°01'0 0.0
2017-Sep-12 03:00N 34°39' E 033°01'0 0.0
2017-Sep-12 02:30N 34°39' E 033°01'0 0.0
2017-Sep-12 02:00N 34°39' E 033°01'0 0.0
2017-Sep-12 01:30N 34°39' E 033°01'0 0.0
2017-Sep-12 01:00N 34°39' E 033°01'0 0.0
2017-Sep-12 00:30N 34°39' E 033°01'0 0.0
2017-Sep-12 00:00N 34°39' E 033°01'0 0.0
2017-Sep-11 23:30N 34°39' E 033°01'0 0.0
2017-Sep-11 23:00N 34°39' E 033°01'0 0.0
2017-Sep-11 22:30N 34°39' E 033°01'0 0.0
2017-Sep-11 22:00N 34°39' E 033°01'0 0.0
2017-Sep-11 21:30N 34°39' E 033°01'0 0.0
2017-Sep-11 21:00N 34°39' E 033°01'0 0.0
2017-Sep-11 20:30N 34°39' E 033°01'0 0.0
2017-Sep-11 20:00N 34°39' E 033°01'0 0.0
2017-Sep-11 19:30N 34°39' E 033°01'0 0.0
2017-Sep-11 19:00N 34°39' E 033°01'0 0.0
2017-Sep-11 18:30N 34°39' E 033°01'0 0.0
2017-Sep-11 18:00N 34°39' E 033°01'0 0.0
2017-Sep-11 17:30N 34°39' E 033°01'0 0.0
2017-Sep-11 16:54N 34°39' E 033°01'0 0.0
2017-Sep-11 16:30N 34°39' E 033°01'0 0.0
2017-Sep-11 16:00N 34°39' E 033°01'0 0.0
2017-Sep-11 15:30N 34°39' E 033°01'0 0.0
2017-Sep-11 15:00N 34°39' E 033°01'0 0.0
2017-Sep-11 14:30N 34°39' E 033°01'0 0.0
2017-Sep-11 14:00N 34°39' E 033°01'0 0.0
2017-Sep-11 13:30N 34°39' E 033°01'0 0.0
2017-Sep-11 13:00N 34°39' E 033°01'0 0.0
2017-Sep-11 12:27N 34°39' E 033°01'0 0.0
2017-Sep-11 12:00N 34°39' E 033°01'0 0.0
2017-Sep-11 11:30N 34°39' E 033°01'0 0.0
2017-Sep-11 11:00N 34°39' E 033°01'0 0.0
2017-Sep-11 10:30N 34°39' E 033°01'0 0.0
2017-Sep-11 09:54N 34°39' E 033°01'0 0.0
2017-Sep-11 09:30N 34°39' E 033°01'0 0.0
2017-Sep-11 09:00N 34°39' E 033°01'0 0.0
2017-Sep-11 08:30N 34°39' E 033°01'0 0.0
2017-Sep-11 07:39N 34°39' E 033°01'  

Dump ship's entire track history